Home > Products > Valid Products > TAF

000
FTUS41 KCAR 040701 AAB
TAFHUL
TAF AMD
KHUL 040701Z 0407/0506 17015KT 3SM -SN OVC035
     FM040900 20016KT P6SM OVC035
     FM041300 23012KT P6SM BKN035
     FM041600 26012G22KT P6SM BKN045=



000
FTUS41 KCAR 040629 AAA
TAFHUL
TAF AMD
KHUL 040629Z 0406/0506 17015KT 1SM -SN OVC025
     FM040900 20016KT P6SM OVC030
     FM041300 23012KT P6SM BKN035
     FM041600 26012G22KT P6SM BKN045=



000
FTUS41 KCAR 040629 AAB
TAFCAR
TAF AMD
KCAR 040629Z 0406/0506 17012KT 1SM -SN OVC016
     FM040800 18012KT 2SM -SN OVC016
     FM041000 19010KT P6SM OVC020
     FM041500 24011KT P6SM BKN025
     FM041600 25012G22KT P6SM BKN030
     FM042300 24008KT P6SM BKN100=



000
FTUS41 KCAR 040628 AAA
TAFPQI
TAF AMD
KPQI 040628Z 0406/0506 17013KT 3SM -SN OVC015
     FM040800 19011KT P6SM OVC015
     FM041300 21009KT P6SM BKN025
     FM041600 25011G22KT P6SM BKN040
      AMD LTD TO CLD VIS AND WIND=



000
FTUS41 KCAR 040628 AAA
TAFBGR
TAF AMD
KBGR 040628Z 0406/0506 19015KT 3SM -SN OVC010
     FM040800 21015KT P6SM OVC015
     FM041200 23011KT P6SM BKN020
     FM041500 25009KT P6SM BKN050=



000
FTUS41 KCAR 040533
TAFBGR
TAF
KBGR 040533Z 0406/0506 19015KT 1SM -SN OVC008
     FM040800 21015KT P6SM OVC008
     FM041200 23011KT P6SM BKN015
     FM041500 25009KT P6SM BKN050=



000
FTUS41 KCAR 040533
TAFBHB
TAF
KBHB 040533Z 0406/0506 19021KT 1SM -SN OVC006
     FM040900 22023KT P6SM OVC008
     FM041100 24019KT P6SM BKN015
     FM041500 26015KT P6SM SCT050
     FM041700 27013G25KT P6SM SCT250
     FM050400 28013KT P6SM BKN250
      AMD LTD TO CLD VIS AND WIND=



000
FTUS41 KCAR 040533
TAFHUL
TAF
KHUL 040533Z 0406/0506 17015KT 3/4SM -SN OVC009
     FM040900 20016KT P6SM OVC008
     FM041300 23012KT P6SM BKN015
     FM041600 26012G22KT P6SM BKN045=



000
FTUS41 KCAR 040533
TAFPQI
TAF
KPQI 040533Z 0406/0506 17013KT 1SM -SN OVC006
     FM040800 19011KT P6SM OVC010
     FM041300 21009KT P6SM BKN015
     FM041600 25011G22KT P6SM BKN040
      AMD LTD TO CLD VIS AND WIND=



000
FTUS41 KCAR 040533
TAFCAR
TAF
KCAR 040533Z 0406/0506 17012KT 1SM -SN OVC009
     FM040800 18012KT 2SM -SN OVC010
     FM041000 19010KT P6SM OVC015
     FM041500 24011KT P6SM BKN025
     FM041600 25012G22KT P6SM BKN030
     FM042300 24008KT P6SM BKN100=



000
FTUS41 KCAR 040533
TAFPQI
TAF
KPQI 040533Z 0406/0506 17013KT 1SM -SN OVC006
     FM040800 19011KT P6SM OVC010
     FM041300 21009KT P6SM BKN015
     FM041600 25011G22KT P6SM BKN040
      AMD LTD TO CLD VIS AND WIND=



000
FTUS41 KCAR 040533
TAFHUL
TAF
KHUL 040533Z 0406/0506 17015KT 3/4SM -SN OVC009
     FM040900 20016KT P6SM OVC008
     FM041300 23012KT P6SM BKN015
     FM041600 26012G22KT P6SM BKN045=



000
FTUS41 KCAR 040533
TAFCAR
TAF
KCAR 040533Z 0406/0506 17012KT 1SM -SN OVC009
     FM040800 18012KT 2SM -SN OVC010
     FM041000 19010KT P6SM OVC015
     FM041500 24011KT P6SM BKN025
     FM041600 25012G22KT P6SM BKN030
     FM042300 24008KT P6SM BKN100=



000
FTUS41 KCAR 040533
TAFBHB
TAF
KBHB 040533Z 0406/0506 19021KT 1SM -SN OVC006
     FM040900 22023KT P6SM OVC008
     FM041100 24019KT P6SM BKN015
     FM041500 26015KT P6SM SCT050
     FM041700 27013G25KT P6SM SCT250
     FM050400 28013KT P6SM BKN250
      AMD LTD TO CLD VIS AND WIND=



000
FTUS41 KCAR 040533
TAFBGR
TAF
KBGR 040533Z 0406/0506 19015KT 1SM -SN OVC008
     FM040800 21015KT P6SM OVC008
     FM041200 23011KT P6SM BKN015
     FM041500 25009KT P6SM BKN050=



000
FTUS41 KCAR 040417 AAA
TAFPQI
TAF AMD
KPQI 040417Z 0404/0424 17006KT 1SM -SN OVC010
     FM040500 19009KT 1SM -SN BR OVC007
     FM040800 20009KT P6SM OVC015
     FM041500 21010G20KT P6SM OVC025
      AMD LTD TO CLD VIS AND WIND=



000
FTUS41 KCAR 040417 AAA
TAFPQI
TAF AMD
KPQI 040417Z 0404/0424 17006KT 1SM -SN OVC010
     FM040500 19009KT 1SM -SN BR OVC007
     FM040800 20009KT P6SM OVC015
     FM041500 21010G20KT P6SM OVC025
      AMD LTD TO CLD VIS AND WIND=



000
FTUS41 KCAR 040416 AAB
TAFCAR
TAF AMD
KCAR 040416Z 0404/0424 17007KT 1/2SM SN OVC010
     FM040600 17010KT 1SM -SN BR OVC007
     FM041200 24013G21KT P6SM BKN025=



000
FTUS41 KCAR 040339 AAA
TAFHUL
TAF AMD
KHUL 040339Z 0404/0424 20004KT 3/4SM -SN OVC015
     FM040400 17010KT 3/4SM -SN OVC008
     FM041200 22012G19KT 4SM -SN OVC015
     FM041600 24013G21KT P6SM BKN035=



000
FTUS41 KCAR 040314 AAA
TAFBGR
TAF AMD
KBGR 040314Z 0403/0424 17012G20KT 3/4SM -SN BR OVC012
     FM040500 17012KT 1SM -SN BR OVC008
     FM040700 19011KT 3SM -SN BR OVC003
     FM041100 20010G20KT P6SM OVC015
     FM041400 22010G17KT P6SM BKN050=



000
FTUS41 KCAR 040314 AAA
TAFBHB
TAF AMD
KBHB 040314Z 0403/0424 19015G25KT 1SM -SN BR OVC015
     FM040600 20015G25KT 1SM -SN BR OVC003
     FM041100 23015G25KT P6SM OVC020
     FM041400 24015G25KT P6SM BKN250
      AMD LTD TO CLD VIS AND WIND=



000
FTUS41 KCAR 032320
TAFBGR
TAF
KBGR 032320Z 0400/0424 18005KT P6SM SCT120 BKN180
     FM040200 18007KT 2SM -SN OVC030
     FM040500 17010KT 3/4SM -SN BR OVC008
     FM040700 19011KT 3SM -SN OVC003
     FM041100 20010G20KT P6SM OVC015
     FM041400 22010G17KT P6SM BKN050=



000
FTUS41 KCAR 032320
TAFHUL
TAF
KHUL 032320Z 0400/0424 20004KT P6SM BKN200
     FM040200 17006KT P6SM OVC050
     FM040400 17007KT 1SM -SN OVC020
     FM040600 17011KT 3/4SM -SN BR OVC006
     FM041200 22012G19KT 4SM -SN OVC015
     FM041600 24013G21KT P6SM BKN035=



000
FTUS41 KCAR 032320
TAFBHB
TAF
KBHB 032320Z 0400/0424 17005KT P6SM SCT120 BKN180
     FM040200 19010KT 4SM -SN OVC020
     FM040600 20015G25KT 1SM -SN BR OVC003
     FM041100 23015G25KT P6SM OVC020
     FM041400 24015G25KT P6SM BKN250
      AMD LTD TO CLD VIS AND WIND=



000
FTUS41 KCAR 032320
TAFPQI
TAF
KPQI 032320Z 0400/0424 18006KT P6SM BKN200
     FM040200 17006KT P6SM OVC050
     FM040400 16010KT 3SM -SN OVC010
     FM040500 19009KT 1SM -SN BR OVC007
     FM041200 20009KT P6SM OVC015
     FM041500 21010G20KT P6SM OVC025
      AMD LTD TO CLD VIS AND WIND=



000
FTUS41 KCAR 032320
TAFCAR
TAF
KCAR 032320Z 0400/0424 15005KT P6SM BKN200
     FM040200 17006KT P6SM OVC050
     FM040400 17007KT 3SM -SN OVC030
     FM040600 17010KT 1SM -SN BR OVC007
     FM041200 24013G21KT P6SM BKN025=



000
FTUS41 KCAR 031759
TAFBGR
TAF
KBGR 031759Z 0318/0418 22005KT P6SM BKN250
     FM040100 18007KT 2SM -SN OVC030
     FM040500 17010KT 1SM -SN OVC008
     FM040700 19011KT 3SM -SN OVC003
     FM041100 20010G20KT P6SM OVC015
     FM041400 22010G17KT P6SM BKN025
     FM041500 23010G17KT P6SM BKN100=



000
FTUS41 KCAR 031758
TAFCAR
TAF
KCAR 031758Z 0318/0418 28008KT P6SM SKC
     FM032200 20005KT P6SM BKN250
     FM040200 17006KT 3SM -SN OVC040
     FM040400 17007KT 1SM -SN OVC050
     FM040600 17010KT 2SM -SN OVC007
     FM041100 19008KT 5SM -SN OVC007
     FM041400 24013G21KT P6SM BKN025=



000
FTUS41 KCAR 031758
TAFHUL
TAF
KHUL 031758Z 0318/0418 27010G20KT P6SM SKC
     FM032200 20005KT P6SM BKN250
     FM040200 17006KT 3SM -SN OVC050
     FM040400 17007KT 1SM -SN OVC020
     FM040600 17011KT 3/4SM -SN OVC006
     FM041200 22012G19KT 4SM -SN OVC015
     FM041600 24013G21KT P6SM BKN035=



000
FTUS41 KCAR 031758
TAFBHB
TAF
KBHB 031758Z 0318/0418 30008KT P6SM BKN250
     FM040200 19010KT 4SM -SN OVC020
     FM040600 20015G25KT 2SM -SN OVC003
     FM041100 23015G25KT P6SM OVC020
     FM041400 24015G25KT P6SM BKN250
      AMD LTD TO CLD VIS AND WIND=



000
FTUS41 KCAR 031758
TAFBGR
TAF
KBGR 031758Z 0318/0418 22005KT P6SM BKN025
     FM040100 18007KT 2SM -SN OVC030
     FM040500 17010KT 1SM -SN OVC008
     FM040700 19011KT 3SM -SN OVC003
     FM041100 20010G20KT P6SM OVC015
     FM041400 22010G17KT P6SM BKN025
     FM041500 23010G17KT P6SM BKN100=



000
FTUS41 KCAR 031758
TAFPQI
TAF
KPQI 031758Z 0318/0418 28008KT P6SM SKC
     FM032100 22006KT P6SM BKN250
     FM040200 17006KT 3SM -SN OVC030
     FM040500 16010KT 1SM -SN OVC010
     FM040900 19009KT 4SM -SN OVC007
     FM041200 20009KT P6SM OVC015
     FM041500 21010G20KT P6SM OVC025
      AMD LTD TO CLD VIS AND WIND=



000
FTUS41 KCAR 031758
TAFBHB
TAF
KBHB 031758Z 0318/0418 30008KT P6SM BKN250
     FM040200 19010KT 4SM -SN OVC020
     FM040600 20015G25KT 2SM -SN OVC003
     FM041100 23015G25KT P6SM OVC020
     FM041400 24015G25KT P6SM BKN250
      AMD LTD TO CLD VIS AND WIND=



000
FTUS41 KCAR 031758
TAFBGR
TAF
KBGR 031758Z 0318/0418 22005KT P6SM BKN025
     FM040100 18007KT 2SM -SN OVC030
     FM040500 17010KT 1SM -SN OVC008
     FM040700 19011KT 3SM -SN OVC003
     FM041100 20010G20KT P6SM OVC015
     FM041400 22010G17KT P6SM BKN025
     FM041500 23010G17KT P6SM BKN100=



000
FTUS41 KCAR 031758
TAFHUL
TAF
KHUL 031758Z 0318/0418 27010G20KT P6SM SKC
     FM032200 20005KT P6SM BKN250
     FM040200 17006KT 3SM -SN OVC050
     FM040400 17007KT 1SM -SN OVC020
     FM040600 17011KT 3/4SM -SN OVC006
     FM041200 22012G19KT 4SM -SN OVC015
     FM041600 24013G21KT P6SM BKN035=



000
FTUS41 KCAR 031758
TAFPQI
TAF
KPQI 031758Z 0318/0418 28008KT P6SM SKC
     FM032100 22006KT P6SM BKN250
     FM040200 17006KT 3SM -SN OVC030
     FM040500 16010KT 1SM -SN OVC010
     FM040900 19009KT 4SM -SN OVC007
     FM041200 20009KT P6SM OVC015
     FM041500 21010G20KT P6SM OVC025
      AMD LTD TO CLD VIS AND WIND=



000
FTUS41 KCAR 031758
TAFCAR
TAF
KCAR 031758Z 0318/0418 28008KT P6SM SKC
     FM032200 20005KT P6SM BKN250
     FM040200 17006KT 3SM -SN OVC040
     FM040400 17007KT 1SM -SN OVC050
     FM040600 17010KT 2SM -SN OVC007
     FM041100 19008KT 5SM -SN OVC007
     FM041400 24013G21KT P6SM BKN025=



000
FTUS41 KCAR 031126
TAFBGR
TAF
KBGR 031126Z 0312/0412 30004KT P6SM SKC
     FM032200 18006KT P6SM OVC050
     FM040300 19006KT 5SM -SN OVC030
     FM040600 19005KT 1SM -SN OVC025=



000
FTUS41 KCAR 031126
TAFHUL
TAF
KHUL 031126Z 0312/0412 32009KT P6SM SKC
     FM032100 18005KT P6SM OVC050
     FM040300 19006KT 5SM -SN OVC030
     FM040600 19005KT 1SM -SN OVC025=



000
FTUS41 KCAR 031126
TAFPQI
TAF
KPQI 031126Z 0312/0412 31007KT P6SM SKC
     FM032200 18004KT P6SM OVC050
     FM040300 19006KT 5SM -SN OVC030
     FM040600 19005KT 2SM -SN OVC025
      AMD LTD TO CLD VIS AND WIND=



000
FTUS41 KCAR 031126
TAFCAR
TAF
KCAR 031126Z 0312/0412 30005KT P6SM SKC
     FM032200 19006KT P6SM OVC050
     FM040300 19006KT 5SM -SN OVC030
     FM040600 19005KT 2SM -SN OVC025=



000
FTUS41 KCAR 031126
TAFBHB
TAF
KBHB 031126Z 0312/0412 28003KT P6SM SKC
     FM032200 18008KT P6SM OVC050
     FM040300 19006KT 5SM -SN OVC030
     FM040600 19005KT 1SM -SN OVC025
      AMD LTD TO CLD VIS AND WIND=



000
FTUS41 KCAR 031126
TAFBGR
TAF
KBGR 031126Z 0312/0412 30004KT P6SM SKC
     FM032200 18006KT P6SM OVC050
     FM040300 19006KT 5SM -SN OVC030
     FM040600 19005KT 1SM -SN OVC025=



000
FTUS41 KCAR 031126
TAFBHB
TAF
KBHB 031126Z 0312/0412 28003KT P6SM SKC
     FM032200 18008KT P6SM OVC050
     FM040300 19006KT 5SM -SN OVC030
     FM040600 19005KT 1SM -SN OVC025
      AMD LTD TO CLD VIS AND WIND=



000
FTUS41 KCAR 031126
TAFCAR
TAF
KCAR 031126Z 0312/0412 30005KT P6SM SKC
     FM032200 19006KT P6SM OVC050
     FM040300 19006KT 5SM -SN OVC030
     FM040600 19005KT 2SM -SN OVC025=



000
FTUS41 KCAR 031126
TAFPQI
TAF
KPQI 031126Z 0312/0412 31007KT P6SM SKC
     FM032200 18004KT P6SM OVC050
     FM040300 19006KT 5SM -SN OVC030
     FM040600 19005KT 2SM -SN OVC025
      AMD LTD TO CLD VIS AND WIND=



000
FTUS41 KCAR 031126
TAFHUL
TAF
KHUL 031126Z 0312/0412 32009KT P6SM SKC
     FM032100 18005KT P6SM OVC050
     FM040300 19006KT 5SM -SN OVC030
     FM040600 19005KT 1SM -SN OVC025=



000
FTUS41 KCAR 030913 AAA
TAFBHB
TAF AMD
KBHB 030913Z 0309/0406 28006KT P6SM SKC
     FM032200 18008KT P6SM OVC050
     FM040300 19006KT 5SM -SN OVC030
      AMD LTD TO CLD VIS AND WIND=



000
FTUS41 KCAR 030912 AAA
TAFHUL
TAF AMD
KHUL 030912Z 0309/0406 32010G16KT P6SM SKC
     FM031100 32012KT P6SM SKC
     FM032100 18005KT P6SM OVC050
     FM040300 19006KT 5SM -SN OVC030=



000
FTUS41 KCAR 030912 AAA
TAFBGR
TAF AMD
KBGR 030912Z 0309/0406 30007KT P6SM SKC
     FM031200 27008KT P6SM SKC
     FM032200 18006KT P6SM OVC050
     FM040300 19006KT 5SM -SN OVC030=



000
FTUS41 KCAR 030911 AAA
TAFPQI
TAF AMD
KPQI 030911Z 0309/0406 31009KT P6SM SKC
     FM031100 32012KT P6SM SKC
     FM032200 18004KT P6SM OVC050
     FM040300 19006KT 5SM -SN OVC030
      AMD LTD TO CLD VIS AND WIND=



000
FTUS41 KCAR 030911 AAB
TAFCAR
TAF AMD
KCAR 030911Z 0309/0406 30011KT P6SM SKC
     FM031100 31012KT P6SM SKC
     FM032200 19006KT P6SM OVC050
     FM040300 19006KT 5SM -SN OVC030=



000
FTUS41 KCAR 030911 AAB
TAFCAR
TAF AMD
KCAR 030911Z 0309/0406 30011KT P6SM SKC
     FM031100 31012KT P6SM SKC
     FM032200 19006KT P6SM OVC050
     FM040300 19006KT 5SM -SN OVC030=



000
FTUS41 KCAR 030911 AAA
TAFPQI
TAF AMD
KPQI 030911Z 0309/0406 31009KT P6SM SKC
     FM031100 32012KT P6SM SKC
     FM032200 18004KT P6SM OVC050
     FM040300 19006KT 5SM -SN OVC030
      AMD LTD TO CLD VIS AND WIND=



000
FTUS41 KCAR 030521
TAFCAR
TAF
KCAR 030521Z 0306/0406 31013G30KT P6SM SKC
     FM031100 31012KT P6SM SKC
     FM032200 19006KT P6SM OVC050
     FM040300 19006KT 5SM -SN OVC030=



000
FTUS41 KCAR 030521
TAFBHB
TAF
KBHB 030521Z 0306/0406 31013G23KT P6SM SKC
     FM031000 30012KT P6SM SKC
     FM032200 18008KT P6SM OVC050
     FM040300 19006KT 5SM -SN OVC030
      AMD LTD TO CLD VIS AND WIND=



000
FTUS41 KCAR 030521
TAFHUL
TAF
KHUL 030521Z 0306/0406 30017G30KT 4SM BLSN SKC
     FM031100 32012KT P6SM SKC
     FM032100 18005KT P6SM OVC050
     FM040300 19006KT 5SM -SN OVC030=



000
FTUS41 KCAR 030521
TAFBGR
TAF
KBGR 030521Z 0306/0406 30019G31KT P6SM SKC
     FM030700 29014G24KT P6SM SKC
     FM031200 27008KT P6SM SKC
     FM032200 18006KT P6SM OVC050
     FM040300 19006KT 5SM -SN OVC030=



000
FTUS41 KCAR 030521
TAFPQI
TAF
KPQI 030521Z 0306/0406 31015G20KT P6SM SKC
     FM031100 32012KT P6SM SKC
     FM032200 18004KT P6SM OVC050
     FM040300 19006KT 5SM -SN OVC030
      AMD LTD TO CLD VIS AND WIND=



000
FTUS41 KCAR 030329 AAB
TAFHUL
TAF AMD
KHUL 030329Z 0303/0324 30017G30KT P6SM FEW025 SCT070
     FM031100 32012KT P6SM SKC
     FM032100 18005KT P6SM SCT100 BKN180=



000
FTUS41 KCAR 030328 AAA
TAFBHB
TAF AMD
KBHB 030328Z 0303/0324 31017G30KT P6SM SCT050
     FM031000 30012KT P6SM SKC
     FM032200 18008KT P6SM SCT070 BKN120 OVC180
      AMD LTD TO CLD VIS AND WIND=



000
FTUS41 KCAR 030327 AAA
TAFBGR
TAF AMD
KBGR 030327Z 0303/0324 30022G35KT P6SM SCT050
     FM030700 29014G24KT P6SM SKC
     FM031200 27008KT P6SM SKC
     FM032200 18006KT P6SM SCT070 BKN120 OVC180=



000
FTUS41 KCAR 030326 AAB
TAFCAR
TAF AMD
KCAR 030326Z 0303/0324 30020G32KT P6SM FEW035
     FM031100 31012KT P6SM SKC
     FM032200 19006KT P6SM SCT120 BKN200=



000
FTUS41 KCAR 022343 AAA
TAFHUL
TAF AMD
KHUL 022343Z 0300/0324 32010G20KT P6SM VCSH BKN035
      TEMPO 0300/0301 1/4SM +SHSN VV005
     FM030200 31015G25KT P6SM SCT050
     FM031100 32012KT P6SM SKC
     FM032100 18005KT P6SM SCT100 BKN180=



000
FTUS41 KCAR 022343 AAA
TAFHUL
TAF AMD
KHUL 022343Z 0300/0324 32010G20KT P6SM VCSH BKN035
      TEMPO 0300/0301 1/4SM +SHSN VV005
     FM030200 31015G25KT P6SM SCT050
     FM031100 32012KT P6SM SKC
     FM032100 18005KT P6SM SCT100 BKN180=



000
FTUS41 KCAR 022320
TAFBHB
TAF
KBHB 022320Z 0300/0324 30005KT P6SM SCT060
     FM031000 30012KT P6SM SKC
     FM032200 18008KT P6SM SCT070 BKN120 OVC180
      AMD LTD TO CLD VIS AND WIND=



000
FTUS41 KCAR 022320
TAFBGR
TAF
KBGR 022320Z 0300/0324 30013G22KT P6SM SCT040 BKN070
     FM030200 29010G20KT P6SM SKC
     FM031200 27008KT P6SM SKC
     FM032200 18006KT P6SM SCT070 BKN120 OVC180=



000
FTUS41 KCAR 022320
TAFCAR
TAF
KCAR 022320Z 0300/0324 30012G23KT P6SM FEW035 BKN080
     FM031100 31012KT P6SM SKC
     FM032200 19006KT P6SM SCT120 BKN200=



000
FTUS41 KCAR 022320
TAFHUL
TAF
KHUL 022320Z 0300/0324 32010G20KT P6SM VCSH BKN035
      TEMPO 0300/0301 1SM -SHSN BR OVC020
     FM030200 31015G25KT P6SM SCT050
     FM031100 32012KT P6SM SKC
     FM032100 18005KT P6SM SCT100 BKN180=



000
FTUS41 KCAR 022320
TAFPQI
TAF
KPQI 022320Z 0300/0324 32012G22KT P6SM FEW035 BKN080
     FM030300 31015G25KT P6SM SCT100
     FM031100 32012KT P6SM SKC
     FM032200 18004KT P6SM SCT100 BKN180
      AMD LTD TO CLD VIS AND WIND=



000
FTUS41 KCAR 022320
TAFBHB
TAF
KBHB 022320Z 0300/0324 30005KT P6SM SCT060
     FM031000 30012KT P6SM SKC
     FM032200 18008KT P6SM SCT070 BKN120 OVC180
      AMD LTD TO CLD VIS AND WIND=



000
FTUS41 KCAR 022320
TAFBGR
TAF
KBGR 022320Z 0300/0324 30013G22KT P6SM SCT040 BKN070
     FM030200 29010G20KT P6SM SKC
     FM031200 27008KT P6SM SKC
     FM032200 18006KT P6SM SCT070 BKN120 OVC180=



000
FTUS41 KCAR 022320
TAFPQI
TAF
KPQI 022320Z 0300/0324 32012G22KT P6SM FEW035 BKN080
     FM030300 31015G25KT P6SM SCT100
     FM031100 32012KT P6SM SKC
     FM032200 18004KT P6SM SCT100 BKN180
      AMD LTD TO CLD VIS AND WIND=



000
FTUS41 KCAR 022320
TAFHUL
TAF
KHUL 022320Z 0300/0324 32010G20KT P6SM VCSH BKN035
      TEMPO 0300/0301 1SM -SHSN BR OVC020
     FM030200 31015G25KT P6SM SCT050
     FM031100 32012KT P6SM SKC
     FM032100 18005KT P6SM SCT100 BKN180=



000
FTUS41 KCAR 022320
TAFCAR
TAF
KCAR 022320Z 0300/0324 30012G23KT P6SM FEW035 BKN080
     FM031100 31012KT P6SM SKC
     FM032200 19006KT P6SM SCT120 BKN200=



000
FTUS41 KCAR 022022 AAB
TAFCAR
TAF AMD
KCAR 022022Z 0220/0318 30013G26KT P6SM -SN SCT025 OVC040
     FM022200 30020G30KT 2SM -SN OVC025
     FM030000 31015G25KT P6SM SCT100
     FM031100 31012KT P6SM FEW250=



000
FTUS41 KCAR 022022 AAB
TAFCAR
TAF AMD
KCAR 022022Z 0220/0318 30013G26KT P6SM -SN SCT025 OVC040
     FM022200 30020G30KT 2SM -SN OVC025
     FM030000 31015G25KT P6SM SCT100
     FM031100 31012KT P6SM FEW250=



000
FTUS41 KCAR 021823 AAA
TAFCAR
TAF AMD
KCAR 021823Z 0218/0318 30010G20KT 3SM -SN SCT025 BKN035
     FM022000 30013G26KT 1 1/2SM -SN OVC025
     FM030000 30020G30KT 4SM -SN SCT025 BKN040
     FM030300 31015G25KT P6SM SCT100
     FM031100 31012KT P6SM FEW250=



000
FTUS41 KCAR 021823 AAA
TAFCAR
TAF AMD
KCAR 021823Z 0218/0318 30010G20KT 3SM -SN SCT025 BKN035
     FM022000 30013G26KT 1 1/2SM -SN OVC025
     FM030000 30020G30KT 4SM -SN SCT025 BKN040
     FM030300 31015G25KT P6SM SCT100
     FM031100 31012KT P6SM FEW250=



000
FTUS41 KCAR 021751
TAFBHB
TAF
KBHB 021751Z 0218/0318 29012G22KT P6SM SCT025 OVC035
     FM022100 29020G30KT P6SM SCT020 BKN040
     FM030000 30015G25KT P6SM SCT100
     FM031000 30012KT P6SM SKC
      AMD LTD TO CLD VIS AND WIND=



000
FTUS41 KCAR 021751
TAFPQI
TAF
KPQI 021751Z 0218/0318 29011G21KT 4SM -SN SCT025 OVC040
     FM022100 30015G25KT 2SM -SN OVC025
     FM030100 30020G30KT 4SM -SN BLSN SCT020 OVC030
     FM030300 31015G25KT P6SM SCT100
     FM031100 32012KT P6SM SKC
      AMD LTD TO CLD VIS AND WIND=



000
FTUS41 KCAR 021751
TAFHUL
TAF
KHUL 021751Z 0218/0318 29011G21KT P6SM -SN SCT025 OVC035
     FM022100 30015G25KT 3SM -SN OVC030
     FM030200 31020G31KT P6SM SCT050
     FM030800 31015G25KT P6SM SKC
     FM031100 32012KT P6SM SKC=



000
FTUS41 KCAR 021751
TAFCAR
TAF
KCAR 021751Z 0218/0318 30010G20KT P6SM -SN SCT025 BKN035
     FM022000 30013G26KT 1 1/2SM -SN OVC025
     FM030000 30020G30KT 4SM -SN SCT025 BKN040
     FM030300 31015G25KT P6SM SCT100
     FM031100 31012KT P6SM FEW250=



000
FTUS41 KCAR 021751
TAFBGR
TAF
KBGR 021751Z 0218/0318 29010G21KT P6SM BKN025 OVC040
     FM030000 31015G30KT P6SM SKC
     FM030700 29010G20KT P6SM SKC
     FM031100 27010KT P6SM SKC=



000
FTUS41 KCAR 021751
TAFBGR
TAF
KBGR 021751Z 0218/0318 29010G21KT P6SM BKN025 OVC040
     FM030000 31015G30KT P6SM SKC
     FM030700 29010G20KT P6SM SKC
     FM031100 27010KT P6SM SKC=



000
FTUS41 KCAR 021751
TAFCAR
TAF
KCAR 021751Z 0218/0318 30010G20KT P6SM -SN SCT025 BKN035
     FM022000 30013G26KT 1 1/2SM -SN OVC025
     FM030000 30020G30KT 4SM -SN SCT025 BKN040
     FM030300 31015G25KT P6SM SCT100
     FM031100 31012KT P6SM FEW250=



000
FTUS41 KCAR 021751
TAFHUL
TAF
KHUL 021751Z 0218/0318 29011G21KT P6SM -SN SCT025 OVC035
     FM022100 30015G25KT 3SM -SN OVC030
     FM030200 31020G31KT P6SM SCT050
     FM030800 31015G25KT P6SM SKC
     FM031100 32012KT P6SM SKC=



000
FTUS41 KCAR 021751
TAFPQI
TAF
KPQI 021751Z 0218/0318 29011G21KT 4SM -SN SCT025 OVC040
     FM022100 30015G25KT 2SM -SN OVC025
     FM030100 30020G30KT 4SM -SN BLSN SCT020 OVC030
     FM030300 31015G25KT P6SM SCT100
     FM031100 32012KT P6SM SKC
      AMD LTD TO CLD VIS AND WIND=



000
FTUS41 KCAR 021751
TAFBHB
TAF
KBHB 021751Z 0218/0318 29012G22KT P6SM SCT025 OVC035
     FM022100 29020G30KT P6SM SCT020 BKN040
     FM030000 30015G25KT P6SM SCT100
     FM031000 30012KT P6SM SKC
      AMD LTD TO CLD VIS AND WIND=



000
FTUS41 KCAR 021417 AAA
TAFBGR
TAF AMD
KBGR 021417Z 0214/0312 30009KT 1 1/2SM -SN OVC025
     FM021500 27007KT 3SM -SN OVC030
     FM021700 29014G26KT P6SM BKN035
     FM030000 29015G30KT P6SM SCT060=



000
FTUS41 KCAR 021417 AAA
TAFBGR
TAF AMD
KBGR 021417Z 0214/0312 30009KT 1 1/2SM -SN OVC025
     FM021500 27007KT 3SM -SN OVC030
     FM021700 29014G26KT P6SM BKN035
     FM030000 29015G30KT P6SM SCT060=



000
FTUS41 KCAR 021148
TAFPQI
TAF
KPQI 021148Z 0212/0312 VRB03KT 2SM -SN OVC025
     FM021500 29008KT P6SM OVC020
     FM021830 30010G22KT P6SM OVC035
     FM022300 30015G30KT 1SM -SHSN BKN035
     FM030130 30015G30KT P6SM SCT100
      AMD LTD TO CLD VIS AND WIND=



000
FTUS41 KCAR 021148
TAFCAR
TAF
KCAR 021148Z 0212/0312 24004KT 2SM -SN OVC025
     FM021500 28006KT 3SM -SN OVC020
     FM021830 30010G22KT P6SM OVC035
     FM022230 30015G30KT 1SM -SHSN BKN035
     FM030100 30017G32KT P6SM SCT100=



000
FTUS41 KCAR 021148
TAFHUL
TAF
KHUL 021148Z 0212/0312 VRB03KT 2SM -SN OVC010
     FM021600 29007KT P6SM OVC020
     FM021800 30013G25KT P6SM OVC035
     FM030000 29012G28KT 1SM -SHSN OVC030
     FM030230 30015G30KT P6SM SCT035=



000
FTUS41 KCAR 021148
TAFBHB
TAF
KBHB 021148Z 0212/0312 30006KT P6SM SCT015
     FM021330 30010KT 3SM -SN BKN015
     FM021900 29016G35KT P6SM BKN035
     FM030200 32016G30KT P6SM SCT250
      AMD LTD TO CLD VIS AND WIND=



000
FTUS41 KCAR 021148
TAFBGR
TAF
KBGR 021148Z 0212/0312 28004KT 2SM -SN BKN030
     FM021400 30009KT P6SM OVC025
     FM021800 29014G26KT P6SM BKN035
     FM030000 29015G30KT P6SM SCT060=



000
FTUS41 KCAR 021132 AAD
TAFHUL
TAF AMD
KHUL 021132Z 0212/0306 21005KT 1 1/2SM -SN OVC040
     FM021300 00000KT 2SM -SN OVC045
     FM021600 29009KT 3SM -SN OVC030
     FM021800 31013KT P6SM OVC035
     FM030100 30011G19KT P6SM BKN070=



000
FTUS41 KCAR 021132 AAD
TAFHUL
TAF AMD
KHUL 021132Z 0212/0306 21005KT 1 1/2SM -SN OVC040
     FM021300 00000KT 2SM -SN OVC045
     FM021600 29009KT 3SM -SN OVC030
     FM021800 31013KT P6SM OVC035
     FM030100 30011G19KT P6SM BKN070=



000
FTUS41 KCAR 021128 AAC
TAFHUL
TAF AMD
KHUL 021128Z 0211/0306 21005KT 2SM -SN OVC040
     FM021300 00000KT 2SM -SN OVC045
     FM021600 29009KT 3SM -SN OVC030
     FM021800 31013KT P6SM OVC035
     FM030100 30011G19KT P6SM BKN070=



000
FTUS41 KCAR 021111 AAB
TAFHUL
TAF AMD
KHUL 021111Z 0211/0306 21005KT 3SM -SN OVC040
     FM021300 00000KT 2SM -SN OVC045
     FM021600 29009KT 3SM -SN OVC030
     FM021800 31013KT P6SM OVC035
     FM030100 30011G19KT P6SM BKN070=



000
FTUS41 KCAR 021102 AAA
TAFBHB
TAF AMD
KBHB 021102Z 0211/0306 30004KT 6SM BR SCT020
     FM021400 31013KT 3SM -SN OVC020
     FM021900 29017G24KT P6SM BKN035
      AMD LTD TO CLD VIS AND WIND=



000
FTUS41 KCAR 021102 AAA
TAFBHB
TAF AMD
KBHB 021102Z 0211/0306 30004KT 6SM BR SCT020
     FM021400 31013KT 3SM -SN OVC020
     FM021900 29017G24KT P6SM BKN035
      AMD LTD TO CLD VIS AND WIND=



000
FTUS41 KCAR 021101 AAA
TAFHUL
TAF AMD
KHUL 021101Z 0211/0306 21005KT 2SM -SN OVC040
     FM021300 00000KT 2SM -SN OVC045
     FM021600 29009KT 3SM -SN OVC030
     FM021800 31013KT P6SM OVC035
     FM030100 30011G19KT P6SM BKN070=



000
FTUS41 KCAR 021101 AAA
TAFHUL
TAF AMD
KHUL 021101Z 0211/0306 21005KT 2SM -SN OVC040
     FM021300 00000KT 2SM -SN OVC045
     FM021600 29009KT 3SM -SN OVC030
     FM021800 31013KT P6SM OVC035
     FM030100 30011G19KT P6SM BKN070=



000
FTUS41 KCAR 021038 CCA
TAFHUL
TAF COR
KHUL 021038Z 0206/0306 21005KT 2SM -SN OVC030
     FM021300 00000KT 2SM -SN OVC045
     FM021600 29009KT 3SM -SN OVC030
     FM021800 31013KT P6SM OVC035
     FM030100 30011G19KT P6SM BKN070=



000
FTUS41 KCAR 021038 CCA
TAFHUL
TAF COR
KHUL 021038Z 0206/0306 21005KT 2SM -SN OVC030
     FM021300 00000KT 2SM -SN OVC045
     FM021600 29009KT 3SM -SN OVC030
     FM021800 31013KT P6SM OVC035
     FM030100 30011G19KT P6SM BKN070=



000
FTUS41 KCAR 020559
TAFBGR
TAF
KBGR 020559Z 0206/0306 VRB03KT 1SM -SN OVC015
     FM020900 VRB03KT 3SM -SN OVC020
     FM021400 31007KT 2SM -SN OVC025
     FM021700 30010KT 3SM -SN OVC030
     FM021800 29013G21KT P6SM OVC035=



000
FTUS41 KCAR 020559
TAFHUL
TAF
KHUL 020559Z 0206/0306 21005KT 2SM -SN OVC030
     FM021000 VRB03KT 3SM -SN OVC045
     FM021300 00000KT 2SM -SN OVC045
     FM021600 29009KT 3SM -SN OVC030
     FM021800 31013KT P6SM OVC035
     FM030100 30011G19KT P6SM BKN070=



000
FTUS41 KCAR 020559
TAFCAR
TAF
KCAR 020559Z 0206/0306 18005KT 4SM -SN OVC045
     FM020700 20004KT 2SM -SN OVC045
     FM021200 VRB03KT 3SM -SN OVC025
     FM021800 30013KT P6SM OVC035
     FM030000 31015KT 2SM -SHSN OVC035
     FM030200 31014G24KT P6SM SCT250=



000
FTUS41 KCAR 020559
TAFCAR
TAF
KCAR 020559Z 0206/0306 18005KT 4SM -SN OVC045
     FM020700 20004KT 2SM -SN OVC045
     FM021200 VRB03KT 3SM -SN OVC025
     FM021800 30013KT P6SM OVC035
     FM030000 31015KT 2SM -SHSN OVC035
     FM030200 31014G24KT P6SM SCT250=



000
FTUS41 KCAR 020559
TAFPQI
TAF
KPQI 020559Z 0206/0306 19004KT 6SM -SN OVC030
     FM020700 VRB03KT 2SM -SN OVC025
     FM021100 25006KT 3SM -SN OVC020
     FM021900 30013KT P6SM OVC035
     FM030000 30012G21KT 1SM -SHSN BKN030
     FM030300 30012G22KT P6SM BKN080
      AMD LTD TO CLD VIS AND WIND=



000
FTUS41 KCAR 020559
TAFBGR
TAF
KBGR 020559Z 0206/0306 VRB03KT 1SM -SN OVC015
     FM020900 VRB03KT 3SM -SN OVC020
     FM021400 31007KT 2SM -SN OVC025
     FM021700 30010KT 3SM -SN OVC030
     FM021800 29013G21KT P6SM OVC035=



000
FTUS41 KCAR 020559
TAFBHB
TAF
KBHB 020559Z 0206/0306 23004KT 2SM -SN BKN008
     FM020900 30004KT 6SM -SN OVC020
     FM021400 31013KT 3SM -SN OVC020
     FM021900 29017G24KT P6SM BKN035
      AMD LTD TO CLD VIS AND WIND=



000
FTUS41 KCAR 020559
TAFHUL
TAF
KHUL 020559Z 0206/0306 21005KT 2SM -SN OVC030
     FM021000 VRB03KT 3SM -SN OVC045
     FM021300 00000KT 2SM -SN OVC045
     FM021600 29009KT 3SM -SN OVC030
     FM021800 31013KT P6SM OVC035
     FM030100 30011G19KT P6SM BKN070=



000
FTUS41 KCAR 020559
TAFBHB
TAF
KBHB 020559Z 0206/0306 23004KT 2SM -SN BKN008
     FM020900 30004KT 6SM -SN OVC020
     FM021400 31013KT 3SM -SN OVC020
     FM021900 29017G24KT P6SM BKN035
      AMD LTD TO CLD VIS AND WIND=



000
FTUS41 KCAR 020559
TAFPQI
TAF
KPQI 020559Z 0206/0306 19004KT 6SM -SN OVC030
     FM020700 VRB03KT 2SM -SN OVC025
     FM021100 25006KT 3SM -SN OVC020
     FM021900 30013KT P6SM OVC035
     FM030000 30012G21KT 1SM -SHSN BKN030
     FM030300 30012G22KT P6SM BKN080
      AMD LTD TO CLD VIS AND WIND=



000
FTUS41 KCAR 020359 AAA
TAFHUL
TAF AMD
KHUL 020359Z 0204/0224 19005KT 2SM -SN OVC025
     FM020600 20004KT 1SM -SN BR OVC007
     FM021200 00000KT 5SM -SN BR OVC010
     FM021500 28012KT P6SM VCSH OVC020=



000
FTUS41 KCAR 020306 AAA
TAFBHB
TAF AMD
KBHB 020306Z 0203/0224 22011KT 1SM -SN BR OVC006
     FM020700 VRB05KT 2SM -SN BR OVC005
     FM021100 30006KT 4SM -SN OVC015
     FM021500 30013KT P6SM OVC045
      AMD LTD TO CLD VIS AND WIND=



000
FTUS41 KCAR 020306 AAA
TAFBHB
TAF AMD
KBHB 020306Z 0203/0224 22011KT 1SM -SN BR OVC006
     FM020700 VRB05KT 2SM -SN BR OVC005
     FM021100 30006KT 4SM -SN OVC015
     FM021500 30013KT P6SM OVC045
      AMD LTD TO CLD VIS AND WIND=



000
FTUS41 KCAR 020305 AAA
TAFBGR
TAF AMD
KBGR 020305Z 0203/0224 20007KT 1SM -SN BR OVC017
     FM020500 00000KT 3/4SM -SN OVC007
     FM021100 30004KT 2SM -SN SCT007 OVC015
     FM021300 31007KT 3SM -SN OVC025
     FM021500 30010G20KT P6SM OVC045=



000
FTUS41 KCAR 020305 AAA
TAFBGR
TAF AMD
KBGR 020305Z 0203/0224 20007KT 1SM -SN BR OVC017
     FM020500 00000KT 3/4SM -SN OVC007
     FM021100 30004KT 2SM -SN SCT007 OVC015
     FM021300 31007KT 3SM -SN OVC025
     FM021500 30010G20KT P6SM OVC045=



000
FTUS41 KCAR 012320
TAFPQI
TAF
KPQI 012320Z 0200/0224 18010KT P6SM OVC090
     FM020500 19005KT 2SM -SN OVC030
     FM020900 VRB03KT 1SM -SN OVC015
     FM021200 27010KT 6SM -SN OVC015
     FM021600 29012G22KT P6SM VCSH OVC035
      AMD LTD TO CLD VIS AND WIND=



000
FTUS41 KCAR 012320
TAFCAR
TAF
KCAR 012320Z 0200/0224 18010KT P6SM OVC090
     FM020500 18006KT 4SM -SN SCT025 OVC045
     FM020900 16005KT 2SM -SN BR OVC015
     FM021200 27010KT 6SM -SN OVC015
     FM021600 30012G22KT P6SM VCSH OVC030=



000
FTUS41 KCAR 012320
TAFHUL
TAF
KHUL 012320Z 0200/0224 19005KT P6SM OVC090
     FM020400 19007KT 3SM -SN OVC025
     FM020600 20004KT 1 1/2SM -SN OVC007
     FM021200 00000KT 4SM -SN BR OVC010
     FM021500 28012KT P6SM VCSH OVC020=



000
FTUS41 KCAR 012320
TAFBHB
TAF
KBHB 012320Z 0200/0224 19008KT P6SM OVC050
     FM020300 21010KT 2SM -SN OVC020
     FM020700 23005KT 3/4SM -SN OVC007
     FM020900 00000KT 2SM -SN OVC008
     FM021100 30006KT 4SM -SN OVC015
     FM021500 30013KT P6SM OVC045
      AMD LTD TO CLD VIS AND WIND=



000
FTUS41 KCAR 012320
TAFBGR
TAF
KBGR 012320Z 0200/0224 18008KT P6SM FEW060 BKN080
     FM020300 20006KT 2SM -SN OVC035
     FM020500 00000KT 3/4SM -SN OVC007
     FM021100 30004KT 2SM -SN SCT007 OVC015
     FM021300 31007KT 3SM -SN OVC025
     FM021500 30010G20KT P6SM OVC045=



000
FTUS41 KCAR 012320
TAFPQI
TAF
KPQI 012320Z 0200/0224 18010KT P6SM OVC090
     FM020500 19005KT 2SM -SN OVC030
     FM020900 VRB03KT 1SM -SN OVC015
     FM021200 27010KT 6SM -SN OVC015
     FM021600 29012G22KT P6SM VCSH OVC035
      AMD LTD TO CLD VIS AND WIND=



000
FTUS41 KCAR 012320
TAFCAR
TAF
KCAR 012320Z 0200/0224 18010KT P6SM OVC090
     FM020500 18006KT 4SM -SN SCT025 OVC045
     FM020900 16005KT 2SM -SN BR OVC015
     FM021200 27010KT 6SM -SN OVC015
     FM021600 30012G22KT P6SM VCSH OVC030=



000
FTUS41 KCAR 011746
TAFBGR
TAF
KBGR 011746Z 0118/0218 18007KT P6SM BKN120
     FM020000 20006KT P6SM -SN OVC050
     FM020200 20006KT 2SM -SN OVC015
     FM020700 00000KT 3/4SM -SN OVC007
     FM020900 00000KT 1/2SM SN SCT003 OVC008
     FM021100 30004KT 1 1/2SM -SN SCT007 OVC015
     FM021300 31007KT 3SM -SN OVC025
     FM021500 30010G20KT P6SM OVC045=



000
FTUS41 KCAR 011746
TAFHUL
TAF
KHUL 011746Z 0118/0218 20009KT P6SM BKN250
     FM020100 19007KT P6SM -SN OVC045
     FM020300 19007KT 3SM -SN OVC020
     FM020500 20004KT 1 1/2SM -SN OVC007
     FM020900 VRB03KT 1/2SM SN OVC007
     FM021200 00000KT 1 1/2SM -SN OVC010
     FM021500 28012KT 3SM -SN OVC020=



000
FTUS41 KCAR 011746
TAFCAR
TAF
KCAR 011746Z 0118/0218 20010KT P6SM BKN250
     FM020000 18006KT P6SM BKN100
     FM020300 18006KT 4SM -SN SCT025 OVC045
     FM020900 16005KT 2SM -SN OVC015
     FM021000 19004KT 1SM -SN OVC010
     FM021200 VRB03KT 1/2SM SN SCT003 OVC007
     FM021500 27010KT 2SM -SN OVC010=



000
FTUS41 KCAR 011746
TAFBGR
TAF
KBGR 011746Z 0118/0218 18007KT P6SM BKN120
     FM020000 20006KT P6SM -SN OVC050
     FM020200 20006KT 2SM -SN OVC015
     FM020700 00000KT 3/4SM -SN OVC007
     FM020900 00000KT 1/2SM SN SCT003 OVC008
     FM021100 30004KT 1 1/2SM -SN SCT007 OVC015
     FM021300 31007KT 3SM -SN OVC025
     FM021500 30010G20KT P6SM OVC045=



000
FTUS41 KCAR 011746
TAFPQI
TAF
KPQI 011746Z 0118/0218 20009KT P6SM BKN250
     FM020300 18007KT 3SM -SN OVC030
     FM020500 19005KT 2SM -SN OVC015
     FM021200 VRB03KT 3/4SM -SN OVC007
     FM021500 27010KT 1 1/2SM -SN OVC010
      AMD LTD TO CLD VIS AND WIND=



000
FTUS41 KCAR 011746
TAFCAR
TAF
KCAR 011746Z 0118/0218 20010KT P6SM BKN250
     FM020000 18006KT P6SM BKN100
     FM020300 18006KT 4SM -SN SCT025 OVC045
     FM020900 16005KT 2SM -SN OVC015
     FM021000 19004KT 1SM -SN OVC010
     FM021200 VRB03KT 1/2SM SN SCT003 OVC007
     FM021500 27010KT 2SM -SN OVC010=



000
FTUS41 KCAR 011746
TAFHUL
TAF
KHUL 011746Z 0118/0218 20009KT P6SM BKN250
     FM020100 19007KT P6SM -SN OVC045
     FM020300 19007KT 3SM -SN OVC020
     FM020500 20004KT 1 1/2SM -SN OVC007
     FM020900 VRB03KT 1/2SM SN OVC007
     FM021200 00000KT 1 1/2SM -SN OVC010
     FM021500 28012KT 3SM -SN OVC020=



000
FTUS41 KCAR 011746
TAFPQI
TAF
KPQI 011746Z 0118/0218 20009KT P6SM BKN250
     FM020300 18007KT 3SM -SN OVC030
     FM020500 19005KT 2SM -SN OVC015
     FM021200 VRB03KT 3/4SM -SN OVC007
     FM021500 27010KT 1 1/2SM -SN OVC010
      AMD LTD TO CLD VIS AND WIND=



000
FTUS41 KCAR 011746
TAFBHB
TAF
KBHB 011746Z 0118/0218 19007KT P6SM BKN250
     FM020000 21010KT P6SM -SN OVC060
     FM020300 21010KT 2SM -SN OVC020
     FM020700 23005KT 3/4SM -SN OVC007
     FM020900 00000KT 2SM -SN OVC008
     FM021100 30006KT 4SM -SN OVC015
     FM021500 30013KT P6SM OVC045
      AMD LTD TO CLD VIS AND WIND=



000
FTUS41 KCAR 011746
TAFBHB
TAF
KBHB 011746Z 0118/0218 19007KT P6SM BKN250
     FM020000 21010KT P6SM -SN OVC060
     FM020300 21010KT 2SM -SN OVC020
     FM020700 23005KT 3/4SM -SN OVC007
     FM020900 00000KT 2SM -SN OVC008
     FM021100 30006KT 4SM -SN OVC015
     FM021500 30013KT P6SM OVC045
      AMD LTD TO CLD VIS AND WIND=



000
FTUS41 KCAR 011120
TAFHUL
TAF
KHUL 011120Z 0112/0212 VRB03KT P6SM SKC
     FM011700 21007KT P6SM SCT120
     FM020300 19006KT 2SM -SN OVC045
     FM020800 19006KT 1SM -SN OVC030=



000
FTUS41 KCAR 011120
TAFBHB
TAF
KBHB 011120Z 0112/0212 VRB03KT P6SM SKC
     FM011700 19006KT P6SM BKN030
     FM012000 19007KT P6SM SCT025 BKN120
     FM020100 22009KT 3SM -SN OVC020
     FM020330 22009KT 1SM -SN OVC010
     FM021000 VRB03KT 3SM -SN OVC030
      AMD LTD TO CLD VIS AND WIND=



000
FTUS41 KCAR 011120
TAFCAR
TAF
KCAR 011120Z 0112/0212 22005KT P6SM SKC
     FM011700 20009KT P6SM BKN030
     FM012100 20009KT P6SM SCT030 OVC100
     FM020300 18004KT 2SM -SN OVC030=



000
FTUS41 KCAR 011120
TAFBGR
TAF
KBGR 011120Z 0112/0212 00000KT P6SM SKC
     FM011700 20006KT P6SM SCT100 OVC200
     FM020100 20007KT P6SM BKN030
     FM020300 20006KT 2SM -SN OVC015
     FM020400 21006KT 1SM -SN OVC015
     FM021000 VRB03KT 3SM -SN OVC030=



000
FTUS41 KCAR 011120
TAFPQI
TAF
KPQI 011120Z 0112/0212 VRB03KT P6SM SKC
     FM011800 19009KT P6SM BKN035
     FM020300 19006KT 3SM -SN OVC050
     FM020900 19006KT 2SM -SN OVC030
      AMD LTD TO CLD VIS AND WIND=



    US Dept of Commerce
    National Oceanic and Atmospheric Administration
    National Weather Service
    1325 East West Highway
    Silver Spring, MD 20910
    Page Author: NWS Internet Services Team
Disclaimer
Information Quality
Credits
Glossary
Privacy Policy
Freedom of Information Act (FOIA)
About Us
Career Opportunities